< < Back
Terminal Aerodrome Forecast


Current Version              Previous Versions:   1  2  3  4  5  6  7  8  9  

Terminal Aerodrome Forecast

996
FTUS44 KMOB 261125
TAFMOB
TAF
KMOB 261125Z 2612/2712 00000KT P6SM SCT100 OVC250
     FM261900 18011KT P6SM SCT050 BKN100 OVC250=

Latest METAR

778
SAUS80 KWBC 261200
MTRMOB
METAR KMOB 261156Z 11004KT 6SM BR FEW010 SCT130 OVC250 21/20 A3015 RMK
AO2 SLP207 T02060200 10211 20183 53016


USA.gov is the U.S. government's official web portal to all federal, state and local government web resources and services.